Time;durP1;ratioP1;P1;durP2;ratioP2;P2;SDS_P1;SDS_P2;PMS_P1;PMS_P2;Temp;Humidity;BMP_temperature;BMP_pressure;BME280_temperature;BME280_humidity;BME280_pressure;Samples;Min_cycle;Max_cycle;Signal;HPM_P1;HPM_P2
2022/05/20 00:00:45;;;;;;;;;;;;;;;25.82;34.33;101726.56;5076260;28;896;-41
2022/05/20 00:03:10;;;;;;;;;;;;;;;25.87;34.33;101717.03;5076724;28;915;-41
2022/05/20 00:05:36;;;;;;;;;;;;;;;25.89;34.34;101722.28;5076615;28;1901;-41
2022/05/20 00:08:01;;;;;;;;;;;;;;;25.86;34.34;101723.41;5076791;28;804;-40
2022/05/20 00:10:30;;;;;;;;;;;;;;;25.85;34.72;101718.16;5076970;28;798;-41
2022/05/20 00:12:55;;;;;;;;;;;;;;;25.81;34.45;101717.59;5076216;28;824;-41
2022/05/20 00:15:22;;;;;;;;;;;;;;;25.83;34.60;101722.84;5076133;28;975;-40
2022/05/20 00:17:47;;;;;;;;;;;;;;;25.74;34.74;101722.75;5076681;28;785;-41
2022/05/20 00:20:13;;;;;;;;;;;;;;;25.78;34.76;101721.47;5076551;28;805;-40
2022/05/20 00:22:38;;;;;;;;;;;;;;;25.79;34.58;101723.16;5076479;28;790;-41
2022/05/20 00:27:48;;;;;;;;;;;;;;;25.74;34.71;101717.34;5071232;28;632;-41
2022/05/20 00:30:13;;;;;;;;;;;;;;;25.73;34.57;101714.81;5075939;28;897;-41
2022/05/20 00:32:40;;;;;;;;;;;;;;;25.77;34.61;101719.78;5076038;28;829;-41
2022/05/20 00:35:06;;;;;;;;;;;;;;;25.73;34.73;101715.69;5075824;28;1455;-40
2022/05/20 00:37:31;;;;;;;;;;;;;;;25.74;34.63;101709.28;5075771;28;940;-40
2022/05/20 00:39:56;;;;;;;;;;;;;;;25.71;34.64;101714.16;5076239;28;877;-40
2022/05/20 00:42:22;;;;;;;;;;;;;;;25.69;34.66;101708.91;5069979;28;780;-40
2022/05/20 00:44:47;;;;;;;;;;;;;;;25.70;35.00;101709.72;5075956;28;1902;-41
2022/05/20 00:47:12;;;;;;;;;;;;;;;25.73;34.73;101698.66;5074709;28;1055;-40
2022/05/20 00:49:38;;;;;;;;;;;;;;;25.73;34.79;101704.91;5075957;28;808;-40
2022/05/20 00:52:03;;;;;;;;;;;;;;;25.72;34.69;101705.91;5058068;28;1220;-40
2022/05/20 00:54:39;;;;;;;;;;;;;;;25.72;34.81;101708.59;5075610;28;821;-40
2022/05/20 00:57:09;;;;;;;;;;;;;;;25.66;34.73;101712.72;5057781;28;834;-40
2022/05/20 00:59:36;;;;;;;;;;;;;;;25.71;34.77;101714.16;5075599;28;840;-40
2022/05/20 01:02:06;;;;;;;;;;;;;;;25.72;34.59;101714.00;5057216;28;904;-40
2022/05/20 01:04:32;;;;;;;;;;;;;;;25.74;34.70;101719.22;5056096;28;1909;-40
2022/05/20 01:06:57;;;;;;;;;;;;;;;25.73;34.77;101718.38;5057931;28;862;-40
2022/05/20 01:09:22;;;;;;;;;;;;;;;25.71;34.80;101709.59;5075713;28;794;-40
2022/05/20 01:11:48;;;;;;;;;;;;;;;25.73;34.78;101720.22;5076079;28;1091;-42
2022/05/20 01:14:18;;;;;;;;;;;;;;;25.71;34.65;101714.16;5075360;28;821;-40
2022/05/20 01:16:43;;;;;;;;;;;;;;;25.73;34.89;101715.69;5075126;28;840;-40
2022/05/20 01:19:08;;;;;;;;;;;;;;;25.75;34.75;101719.06;5076098;28;791;-40
2022/05/20 01:21:34;;;;;;;;;;;;;;;25.78;34.64;101717.91;5057869;28;802;-41
2022/05/20 01:23:59;;;;;;;;;;;;;;;25.74;34.76;101709.28;5076001;28;1894;-41
2022/05/20 01:26:25;;;;;;;;;;;;;;;25.72;34.63;101711.28;5075404;28;1508;-40
2022/05/20 01:28:50;;;;;;;;;;;;;;;25.79;34.58;101714.25;5074797;28;806;-40
2022/05/20 01:31:15;;;;;;;;;;;;;;;25.74;34.71;101711.16;5075814;28;1022;-41
2022/05/20 01:33:42;;;;;;;;;;;;;;;25.79;34.63;101719.63;5075593;28;831;-40
2022/05/20 01:36:08;;;;;;;;;;;;;;;25.84;34.70;101714.63;5074922;28;988;-41
2022/05/20 01:38:34;;;;;;;;;;;;;;;25.82;34.96;101710.38;5075864;28;818;-40
2022/05/20 01:41:04;;;;;;;;;;;;;;;25.71;34.54;101714.97;5076107;28;821;-41
2022/05/20 01:43:29;;;;;;;;;;;;;;;25.65;34.73;101710.19;5079544;28;1963;-40
2022/05/20 01:46:15;;;;;;;;;;;;;;;25.72;34.89;101713.13;5079776;28;986;-40
2022/05/20 01:48:48;;;;;;;;;;;;;;;25.75;34.60;101708.28;5060915;28;1115;-40
2022/05/20 01:51:14;;;;;;;;;;;;;;;25.79;34.76;101709.69;5060428;28;993;-40
2022/05/20 01:53:41;;;;;;;;;;;;;;;25.74;34.66;101705.75;5079438;28;823;-40
2022/05/20 01:56:20;;;;;;;;;;;;;;;25.74;34.89;101703.88;5078921;28;973;-40
2022/05/20 01:58:47;;;;;;;;;;;;;;;25.83;34.75;101706.69;5073544;28;817;-40
2022/05/20 02:01:16;;;;;;;;;;;;;;;25.80;34.85;101710.53;5061212;28;907;-40
2022/05/20 02:03:46;;;;;;;;;;;;;;;25.75;35.00;101704.75;5060937;28;1886;-41
2022/05/20 02:06:19;;;;;;;;;;;;;;;25.76;34.89;101709.13;5078513;28;911;-40
2022/05/20 02:08:50;;;;;;;;;;;;;;;25.70;35.06;101699.81;5060619;28;900;-40
2022/05/20 02:11:31;;;;;;;;;;;;;;;25.78;34.74;101705.28;5078954;28;794;-41
2022/05/20 02:13:59;;;;;;;;;;;;;;;25.78;34.89;101705.28;5079050;28;766;-40
2022/05/20 02:16:26;;;;;;;;;;;;;;;25.82;34.98;101705.00;5060374;28;955;-42
2022/05/20 02:18:52;;;;;;;;;;;;;;;25.79;34.74;101714.25;5059420;28;817;-42
2022/05/20 02:21:20;;;;;;;;;;;;;;;25.84;34.72;101706.53;5078842;28;864;-42
2022/05/20 02:23:46;;;;;;;;;;;;;;;25.82;34.99;101711.25;5078489;28;1890;-42
2022/05/20 02:26:15;;;;;;;;;;;;;;;25.87;34.99;101706.25;5078131;28;1035;-42
2022/05/20 02:28:42;;;;;;;;;;;;;;;25.84;35.04;101697.63;5078840;28;888;-42
2022/05/20 02:31:08;;;;;;;;;;;;;;;25.86;34.88;101701.84;5059805;28;1159;-40
2022/05/20 02:33:33;;;;;;;;;;;;;;;25.92;34.68;101700.41;5077986;28;837;-41
2022/05/20 02:36:03;;;;;;;;;;;;;;;25.84;34.80;101703.00;5078522;28;756;-41
2022/05/20 02:38:28;;;;;;;;;;;;;;;25.78;34.85;101702.59;5078504;28;747;-41
2022/05/20 02:40:53;;;;;;;;;;;;;;;25.80;34.91;101702.44;5060217;28;881;-42
2022/05/20 02:43:19;;;;;;;;;;;;;;;25.82;34.87;101705.84;5078468;28;908;-40
2022/05/20 02:45:44;;;;;;;;;;;;;;;25.82;34.75;101700.47;5078035;28;1917;-40
2022/05/20 02:48:10;;;;;;;;;;;;;;;25.86;34.79;101699.13;5059998;28;836;-40
2022/05/20 02:50:35;;;;;;;;;;;;;;;25.79;34.99;101704.28;5078461;28;925;-41
2022/05/20 02:53:00;;;;;;;;;;;;;;;25.76;34.64;101698.34;5076611;28;798;-42
2022/05/20 02:55:26;;;;;;;;;;;;;;;25.79;34.99;101698.06;5078048;28;846;-41
2022/05/20 02:57:51;;;;;;;;;;;;;;;25.74;35.07;101705.75;5077646;28;790;-43
2022/05/20 03:05:45;;;;;;;;;;;;;;;25.73;35.17;101706.72;5077848;28;1914;-43
2022/05/20 03:08:11;;;;;;;;;;;;;;;25.72;34.91;101714.00;5077911;28;1023;-41
2022/05/20 03:10:36;;;;;;;;;;;;;;;25.71;34.83;101704.19;5077938;28;789;-41
2022/05/20 03:13:02;;;;;;;;;;;;;;;25.74;34.58;101706.59;5077857;28;891;-40
2022/05/20 03:15:28;;;;;;;;;;;;;;;25.74;34.56;101709.28;5077547;28;882;-41
2022/05/20 03:17:53;;;;;;;;;;;;;;;25.00;30.29;101706.41;5077481;28;868;-40
2022/05/20 03:20:19;;;;;;;;;;;;;;;24.44;30.30;101699.78;5077939;28;789;-39
2022/05/20 03:22:44;;;;;;;;;;;;;;;24.35;30.50;101700.66;5058703;28;889;-40
2022/05/20 03:25:09;;;;;;;;;;;;;;;24.17;30.78;101701.34;5077814;28;1951;-41
2022/05/20 03:27:35;;;;;;;;;;;;;;;24.12;30.56;101695.53;5077144;28;1274;-39
2022/05/20 03:30:00;;;;;;;;;;;;;;;24.10;30.43;101697.50;5077164;28;814;-40
2022/05/20 03:32:25;;;;;;;;;;;;;;;24.07;30.24;101698.59;5077560;28;799;-39
2022/05/20 03:34:51;;;;;;;;;;;;;;;24.05;30.37;101697.91;5077763;28;769;-42
2022/05/20 03:37:16;;;;;;;;;;;;;;;23.97;30.56;101698.59;5076942;28;896;-42
2022/05/20 03:39:41;;;;;;;;;;;;;;;23.96;30.47;101704.09;5059225;28;976;-40
2022/05/20 03:42:07;;;;;;;;;;;;;;;23.89;30.40;101692.22;5077250;28;759;-47
2022/05/20 03:44:32;;;;;;;;;;;;;;;23.81;30.68;101699.13;5077324;28;1914;-43
2022/05/20 03:46:58;;;;;;;;;;;;;;;23.73;30.73;101694.44;5076832;28;1109;-43
2022/05/20 03:49:24;;;;;;;;;;;;;;;23.72;31.19;101697.28;5076631;28;853;-39
2022/05/20 03:51:51;;;;;;;;;;;;;;;23.73;31.07;101697.13;5077084;28;845;-40
2022/05/20 03:54:17;;;;;;;;;;;;;;;24.22;32.28;101709.00;5052585;28;1130;-44
2022/05/20 03:56:42;;;;;;;;;;;;;;;24.32;31.77;101709.84;5058422;28;820;-42
2022/05/20 03:59:11;;;;;;;;;;;;;;;24.57;32.17;101714.81;5076956;28;805;-43
2022/05/20 04:04:21;;;;;;;;;;;;;;;24.85;32.32;101716.75;5076106;28;1894;-47
2022/05/20 04:06:46;;;;;;;;;;;;;;;24.95;31.38;101720.31;5076747;28;833;-44
2022/05/20 04:09:11;;;;;;;;;;;;;;;24.73;31.76;101719.59;5076554;28;827;-40
2022/05/20 04:11:37;;;;;;;;;;;;;;;24.51;31.28;101712.66;5076691;28;814;-41
2022/05/20 04:14:03;;;;;;;;;;;;;;;24.49;31.85;101720.88;5076481;28;842;-42
2022/05/20 04:16:28;;;;;;;;;;;;;;;24.44;31.49;101724.00;5076118;28;1630;-42
2022/05/20 04:18:53;;;;;;;;;;;;;;;24.28;31.78;101718.31;5076181;28;825;-40
2022/05/20 04:21:19;;;;;;;;;;;;;;;24.30;31.84;101724.44;5076981;28;765;-42
2022/05/20 04:23:44;;;;;;;;;;;;;;;24.36;31.81;101721.16;5076201;28;1902;-41
2022/05/20 04:26:10;;;;;;;;;;;;;;;24.35;31.63;101722.16;5075957;28;1188;-40
2022/05/20 04:28:35;;;;;;;;;;;;;;;24.30;31.67;101719.03;5076282;28;856;-40
2022/05/20 04:31:01;;;;;;;;;;;;;;;24.32;31.60;101719.75;5075780;28;911;-41
2022/05/20 04:33:27;;;;;;;;;;;;;;;24.35;31.84;101716.78;5076397;28;837;-40
2022/05/20 04:35:52;;;;;;;;;;;;;;;24.36;31.71;101718.47;5075902;28;1480;-39
2022/05/20 04:38:17;;;;;;;;;;;;;;;24.37;31.95;101719.34;5075873;28;837;-40
2022/05/20 04:40:43;;;;;;;;;;;;;;;24.31;32.09;101710.84;5075679;28;860;-40
2022/05/20 04:48:36;;;;;;;;;;;;;;;24.36;32.11;101720.34;5060672;28;607;-40
2022/05/20 04:51:01;;;;;;;;;;;;;;;24.45;32.33;101725.72;5076009;28;902;-40
2022/05/20 04:56:11;;;;;;;;;;;;;;;24.54;31.74;101728.56;5075891;28;666;-40
2022/05/20 04:58:36;;;;;;;;;;;;;;;24.50;31.66;101730.66;5075919;28;809;-40
2022/05/20 05:01:02;;;;;;;;;;;;;;;24.52;31.32;101727.84;5057129;28;934;-40
2022/05/20 05:03:27;;;;;;;;;;;;;;;24.54;31.54;101721.31;5075756;28;892;-40
2022/05/20 05:05:52;;;;;;;;;;;;;;;24.60;31.41;101727.13;5075222;28;1901;-41
2022/05/20 05:08:18;;;;;;;;;;;;;;;24.57;31.20;101728.25;5057879;28;803;-40
2022/05/20 05:10:43;;;;;;;;;;;;;;;24.61;31.53;101726.97;5076084;28;794;-40
2022/05/20 05:13:09;;;;;;;;;;;;;;;24.62;31.36;101723.31;5075951;28;753;-40
2022/05/20 05:15:34;;;;;;;;;;;;;;;24.65;31.58;101724.84;5075760;28;823;-40
2022/05/20 05:18:09;;;;;;;;;;;;;;;24.62;31.49;101731.38;5079556;28;891;-40
2022/05/20 05:20:34;;;;;;;;;;;;;;;24.63;31.82;101734.91;5079891;28;1298;-40
2022/05/20 05:23:00;;;;;;;;;;;;;;;24.71;31.83;101740.41;5080358;28;872;-40
2022/05/20 05:25:25;;;;;;;;;;;;;;;24.62;31.95;101744.84;5079284;28;1889;-40
2022/05/20 05:27:51;;;;;;;;;;;;;;;24.69;32.13;101745.13;5080376;28;801;-40
2022/05/20 05:30:16;;;;;;;;;;;;;;;24.60;32.26;101743.25;5079190;28;836;-40
2022/05/20 05:32:42;;;;;;;;;;;;;;;24.63;32.50;101748.34;5079643;28;754;-40
2022/05/20 05:35:08;;;;;;;;;;;;;;;24.64;32.25;101750.06;5080075;28;754;-41
2022/05/20 05:37:33;;;;;;;;;;;;;;;24.61;32.46;101744.97;5061929;28;821;-42
2022/05/20 05:39:59;;;;;;;;;;;;;;;24.61;33.19;101748.50;5078896;28;817;-41
2022/05/20 05:42:24;;;;;;;;;;;;;;;24.72;32.81;101738.59;5061161;28;834;-40
2022/05/20 05:44:51;;;;;;;;;;;;;;;24.67;32.96;101739.03;5079244;28;1914;-41
2022/05/20 05:47:17;;;;;;;;;;;;;;;24.65;32.87;101739.16;5079378;28;966;-40
2022/05/20 05:49:42;;;;;;;;;;;;;;;24.68;32.96;101741.56;5079203;28;818;-40
2022/05/20 05:52:07;;;;;;;;;;;;;;;24.73;33.53;101740.28;5079402;28;801;-42
2022/05/20 05:54:35;;;;;;;;;;;;;;;24.60;33.77;101735.19;5078773;28;973;-40
2022/05/20 05:57:00;;;;;;;;;;;;;;;23.94;35.05;101735.66;5078653;28;1230;-40
2022/05/20 05:59:25;;;;;;;;;;;;;;;24.16;35.27;101731.00;5078781;28;908;-40
2022/05/20 06:01:55;;;;;;;;;;;;;;;24.20;34.27;101727.97;5079092;28;893;-40
2022/05/20 06:04:21;;;;;;;;;;;;;;;24.25;35.01;101727.53;5079142;28;1958;-40
2022/05/20 06:06:46;;;;;;;;;;;;;;;24.54;34.39;101723.16;5078687;28;821;-42
2022/05/20 06:09:11;;;;;;;;;;;;;;;24.48;34.65;101726.41;5078273;28;858;-42
2022/05/20 06:11:37;;;;;;;;;;;;;;;24.51;34.42;101728.81;5078982;28;837;-43
2022/05/20 06:14:02;;;;;;;;;;;;;;;24.55;34.39;101724.84;5078975;28;765;-44
2022/05/20 06:16:27;;;;;;;;;;;;;;;24.61;34.13;101737.72;5078636;28;831;-39
2022/05/20 06:18:53;;;;;;;;;;;;;;;24.69;34.01;101734.34;5078337;28;861;-40
2022/05/20 06:21:18;;;;;;;;;;;;;;;24.69;34.06;101729.81;5077786;28;837;-37
2022/05/20 06:23:43;;;;;;;;;;;;;;;24.76;34.48;101726.53;5078530;28;1890;-38
2022/05/20 06:26:09;;;;;;;;;;;;;;;24.86;34.05;101732.75;5078779;28;1067;-40
2022/05/20 06:28:34;;;;;;;;;;;;;;;24.96;33.86;101724.69;5078253;28;1425;-40
2022/05/20 06:30:59;;;;;;;;;;;;;;;24.86;34.12;101727.38;5078131;28;978;-39
2022/05/20 06:33:25;;;;;;;;;;;;;;;24.85;34.40;101724.84;5078733;28;809;-41
2022/05/20 06:41:18;;;;;;;;;;;;;;;24.92;34.34;101726.00;5078060;28;688;-40
2022/05/20 06:43:43;;;;;;;;;;;;;;;24.98;34.43;101729.94;5077993;28;1910;-41
2022/05/20 06:46:10;;;;;;;;;;;;;;;25.02;33.79;101734.91;5077525;28;859;-41
2022/05/20 06:48:40;;;;;;;;;;;;;;;25.05;34.19;101740.00;5077956;28;991;-41
2022/05/20 06:51:05;;;;;;;;;;;;;;;25.14;34.37;101734.75;5078374;28;825;-43
2022/05/20 06:53:31;;;;;;;;;;;;;;;25.16;34.10;101738.13;5078261;28;831;-43
2022/05/20 06:55:57;;;;;;;;;;;;;;;25.10;34.25;101726.09;5077695;28;866;-42
2022/05/20 06:58:22;;;;;;;;;;;;;;;25.26;33.76;101733.56;5078099;28;772;-41
2022/05/20 07:00:48;;;;;;;;;;;;;;;25.24;33.30;101737.41;5077226;28;738;-41
2022/05/20 07:03:13;;;;;;;;;;;;;;;25.34;32.68;101727.44;5077733;28;801;-40
2022/05/20 07:05:38;;;;;;;;;;;;;;;25.34;32.45;101732.81;5078055;28;1910;-40
2022/05/20 07:08:04;;;;;;;;;;;;;;;25.36;33.74;101733.53;5077441;28;977;-39
2022/05/20 07:10:29;;;;;;;;;;;;;;;25.42;33.00;101735.63;5077489;28;857;-40
2022/05/20 07:12:55;;;;;;;;;;;;;;;25.44;32.23;101736.31;5077629;28;878;-38
2022/05/20 07:15:20;;;;;;;;;;;;;;;25.55;31.76;101742.53;5077111;28;868;-39
2022/05/20 07:17:46;;;;;;;;;;;;;;;25.55;32.30;101729.91;5077330;28;1057;-38
2022/05/20 07:20:11;;;;;;;;;;;;;;;25.56;32.09;101734.31;5077356;28;1246;-38
2022/05/20 07:22:37;;;;;;;;;;;;;;;25.58;31.98;101734.16;5076791;28;1235;-38
2022/05/20 07:25:02;;;;;;;;;;;;;;;25.60;32.44;101740.25;5077055;28;1902;-38
2022/05/20 07:27:28;;;;;;;;;;;;;;;25.61;31.86;101735.72;5077527;28;1121;-41
2022/05/20 07:29:53;;;;;;;;;;;;;;;25.01;34.01;101725.13;5077258;28;950;-45
2022/05/20 07:32:20;;;;;;;;;;;;;;;22.59;37.76;101716.63;5077431;28;820;-40
2022/05/20 07:34:45;;;;;;;;;;;;;;;22.34;38.52;101714.16;5077295;28;1028;-40
2022/05/20 07:37:10;;;;;;;;;;;;;;;23.73;35.79;101715.94;5076203;28;1140;-36
2022/05/20 07:39:36;;;;;;;;;;;;;;;24.43;34.95;101711.56;5076087;28;1239;-38
2022/05/20 07:42:01;;;;;;;;;;;;;;;24.76;35.17;101713.06;5077100;28;795;-39
2022/05/20 07:44:26;;;;;;;;;;;;;;;24.98;33.72;101711.09;5076672;28;1967;-40
2022/05/20 07:46:52;;;;;;;;;;;;;;;25.15;33.68;101706.81;5076526;28;1338;-38
2022/05/20 07:49:17;;;;;;;;;;;;;;;25.30;33.07;101709.88;5058274;28;841;-35
2022/05/20 07:51:43;;;;;;;;;;;;;;;25.27;33.38;101702.97;5076916;28;715;-36
2022/05/20 07:54:11;;;;;;;;;;;;;;;25.26;33.30;101706.63;5058986;28;1144;-38
2022/05/20 07:56:40;;;;;;;;;;;;;;;25.26;34.14;101720.09;5059328;28;813;-39
2022/05/20 07:59:09;;;;;;;;;;;;;;;25.46;34.33;101711.94;5059303;28;822;-39
2022/05/20 08:01:35;;;;;;;;;;;;;;;25.41;34.21;101704.31;5076341;28;811;-39
2022/05/20 08:06:47;;;;;;;;;;;;;;;25.41;34.55;101706.13;5076201;28;1084;-39
2022/05/20 08:09:12;;;;;;;;;;;;;;;25.56;33.91;101696.59;5057853;28;1116;-38
2022/05/20 08:11:37;;;;;;;;;;;;;;;25.71;33.18;101701.50;5076378;28;1274;-38
2022/05/20 08:14:03;;;;;;;;;;;;;;;25.85;33.44;101700.16;5075925;28;1235;-39
2022/05/20 08:16:28;;;;;;;;;;;;;;;25.87;32.95;101687.38;5075188;28;1061;-39
2022/05/20 08:18:53;;;;;;;;;;;;;;;25.89;32.63;101692.63;5076103;28;1278;-39
2022/05/20 08:21:19;;;;;;;;;;;;;;;25.86;32.48;101693.75;5076806;28;969;-39
2022/05/20 08:23:45;;;;;;;;;;;;;;;26.01;32.39;101695.91;5075596;28;797;-39
2022/05/20 08:26:11;;;;;;;;;;;;;;;26.08;33.74;101691.63;5076119;28;1144;-40
2022/05/20 08:28:36;;;;;;;;;;;;;;;26.04;33.15;101693.78;5076000;28;811;-40
2022/05/20 08:31:02;;;;;;;;;;;;;;;26.12;32.97;101700.25;5075716;28;924;-38
2022/05/20 08:33:27;;;;;;;;;;;;;;;26.26;32.87;101704.25;5076189;28;861;-39
2022/05/20 08:35:52;;;;;;;;;;;;;;;26.34;32.19;101704.38;5076270;28;814;-39
2022/05/20 08:38:18;;;;;;;;;;;;;;;26.44;32.27;101696.22;5076161;28;1445;-39
2022/05/20 08:40:44;;;;;;;;;;;;;;;26.46;31.85;101704.97;5057331;28;870;-39
2022/05/20 08:43:09;;;;;;;;;;;;;;;26.60;31.73;101700.03;5057758;28;1123;-39
2022/05/20 08:45:35;;;;;;;;;;;;;;;26.52;31.33;101695.44;5057329;28;1913;-38
2022/05/20 08:48:00;;;;;;;;;;;;;;;26.60;31.08;101702.72;5076144;28;726;-39
2022/05/20 08:50:32;;;;;;;;;;;;;;;26.63;31.49;101694.31;5058272;28;1133;-38
2022/05/20 08:52:57;;;;;;;;;;;;;;;26.59;30.71;101691.09;5074781;28;1044;-39
2022/05/20 08:55:22;;;;;;;;;;;;;;;26.59;30.69;101679.47;5075124;28;1262;-39
2022/05/20 08:57:52;;;;;;;;;;;;;;;26.54;30.56;101677.25;5075883;28;773;-39
2022/05/20 09:00:17;;;;;;;;;;;;;;;26.57;30.38;101682.31;5075505;28;839;-38
2022/05/20 09:02:42;;;;;;;;;;;;;;;26.63;30.55;101676.28;5076190;28;854;-39
2022/05/20 09:05:14;;;;;;;;;;;;;;;26.60;31.21;101678.44;5076248;28;1964;-39
2022/05/20 09:07:58;;;;;;;;;;;;;;;26.23;30.32;101664.13;5075314;28;891;-39
2022/05/20 09:10:30;;;;;;;;;;;;;;;25.83;31.45;101667.09;5075877;28;797;-36
2022/05/20 09:13:06;;;;;;;;;;;;;;;26.27;31.18;101670.91;5075964;28;805;-37
2022/05/20 09:15:49;;;;;;;;;;;;;;;26.66;30.39;101661.63;5075495;28;809;-37
2022/05/20 09:18:33;;;;;;;;;;;;;;;26.68;30.77;101665.00;5075636;28;784;-36
2022/05/20 09:20:58;;;;;;;;;;;;;;;26.69;30.59;101655.06;5071373;28;817;-36
2022/05/20 09:23:24;;;;;;;;;;;;;;;26.76;29.92;101643.47;5075452;28;961;-36
2022/05/20 09:26:00;;;;;;;;;;;;;;;26.76;31.14;101645.31;5075385;28;1955;-36
2022/05/20 09:28:25;;;;;;;;;;;;;;;26.78;30.14;101648.72;5075578;28;805;-36
2022/05/20 09:30:51;;;;;;;;;;;;;;;26.78;29.23;101641.47;5075154;28;836;-36
2022/05/20 09:33:24;;;;;;;;;;;;;;;27.07;29.54;101647.56;5075430;28;825;-36
2022/05/20 09:35:54;;;;;;;;;;;;;;;27.08;29.14;101643.00;5075447;28;802;-36
2022/05/20 09:38:39;;;;;;;;;;;;;;;27.01;29.21;101642.75;5057208;28;918;-36
2022/05/20 09:41:18;;;;;;;;;;;;;;;26.96;28.97;101634.31;5057394;28;827;-36
2022/05/20 09:43:44;;;;;;;;;;;;;;;27.15;28.82;101630.56;5068618;28;806;-36
2022/05/20 09:46:30;;;;;;;;;;;;;;;27.40;28.39;101627.97;5075106;28;1966;-36
2022/05/20 09:48:57;;;;;;;;;;;;;;;27.48;28.16;101621.72;5074800;28;1474;-36
2022/05/20 09:51:28;;;;;;;;;;;;;;;27.57;28.30;101626.16;5057175;28;821;-37
2022/05/20 09:54:12;;;;;;;;;;;;;;;27.69;27.73;101615.06;5057816;28;829;-36
2022/05/20 09:56:41;;;;;;;;;;;;;;;27.73;27.84;101614.56;5056548;28;845;-37
2022/05/20 09:59:25;;;;;;;;;;;;;;;27.77;27.62;101617.78;5056963;28;1141;-36
2022/05/20 10:02:11;;;;;;;;;;;;;;;27.79;27.83;101604.94;5071795;28;1064;-37
2022/05/20 10:04:39;;;;;;;;;;;;;;;27.73;27.84;101598.34;5036853;28;1962;-37
2022/05/20 10:07:05;;;;;;;;;;;;;;;27.84;27.69;101599.88;5060136;28;1239;-36
2022/05/20 10:09:38;;;;;;;;;;;;;;;27.85;27.48;101604.28;5077971;28;1270;-37
2022/05/20 10:12:07;;;;;;;;;;;;;;;27.78;28.00;101600.53;5060744;28;1315;-36
2022/05/20 10:14:38;;;;;;;;;;;;;;;27.90;27.83;101601.06;5078422;28;1112;-36
2022/05/20 10:17:09;;;;;;;;;;;;;;;27.97;27.67;101585.88;5078373;28;1223;-36
2022/05/20 10:19:53;;;;;;;;;;;;;;;28.05;27.46;101593.13;5060555;28;1077;-36
2022/05/20 10:22:22;;;;;;;;;;;;;;;28.02;27.56;101584.50;5076286;28;1267;-36
2022/05/20 10:24:48;;;;;;;;;;;;;;;28.02;27.25;101587.22;5060280;28;1902;-36
2022/05/20 10:27:36;;;;;;;;;;;;;;;28.14;27.51;101585.00;5077905;28;1310;-37
2022/05/20 10:32:49;;;;;;;;;;;;;;;27.93;28.11;101579.09;5077601;28;1021;-37
2022/05/20 10:35:16;;;;;;;;;;;;;;;27.88;27.72;101570.63;5077777;28;1112;-37
2022/05/20 10:37:42;;;;;;;;;;;;;;;27.91;28.23;101570.28;5060353;28;1128;-37
2022/05/20 10:40:22;;;;;;;;;;;;;;;27.99;27.87;101561.34;5078001;28;1135;-37
2022/05/20 10:42:48;;;;;;;;;;;;;;;27.70;28.08;101490.56;5077987;28;1187;-37
2022/05/20 10:48:37;;;;;;;;;;;;;;;28.24;27.61;101553.22;5076466;28;1077;-37
2022/05/20 10:51:15;;;;;;;;;;;;;;;28.33;27.60;101551.38;5076665;28;1262;-37
2022/05/20 10:54:18;;;;;;;;;;;;;;;28.32;27.96;101552.34;5075254;28;1169;-37
2022/05/20 10:56:43;;;;;;;;;;;;;;;28.40;27.65;101535.28;5059631;28;1160;-37
2022/05/20 10:59:08;;;;;;;;;;;;;;;28.44;27.83;101544.75;5077688;28;1277;-37
2022/05/20 11:01:34;;;;;;;;;;;;;;;28.47;27.78;101542.56;5074262;28;1266;-36
2022/05/20 11:04:18;;;;;;;;;;;;;;;28.55;27.52;101538.13;5077770;28;1961;-37
2022/05/20 11:06:50;;;;;;;;;;;;;;;28.60;27.75;101538.44;5076326;28;1274;-36
2022/05/20 11:09:35;;;;;;;;;;;;;;;28.60;27.64;101535.75;5074832;28;1313;-37
2022/05/20 11:12:03;;;;;;;;;;;;;;;28.67;27.20;101530.47;5033660;28;1342;-37
2022/05/20 11:14:38;;;;;;;;;;;;;;;28.67;26.87;101527.78;5075856;28;1423;-36
2022/05/20 11:17:18;;;;;;;;;;;;;;;28.66;26.72;101520.69;5077511;28;1021;-39
2022/05/20 11:20:07;;;;;;;;;;;;;;;28.77;26.17;101524.84;5076026;28;1302;-39
2022/05/20 11:22:44;;;;;;;;;;;;;;;28.81;26.47;101518.09;5077018;28;1226;-39
2022/05/20 11:25:15;;;;;;;;;;;;;;;28.79;26.55;101517.41;5076925;28;1905;-39
2022/05/20 11:27:41;;;;;;;;;;;;;;;28.79;26.59;101512.00;5058236;28;1471;-38
2022/05/20 11:30:06;;;;;;;;;;;;;;;28.93;26.20;101515.81;5076755;28;1171;-38
2022/05/20 11:32:46;;;;;;;;;;;;;;;28.87;25.85;101506.53;5077226;28;1115;-38
2022/05/20 11:35:18;;;;;;;;;;;;;;;28.92;25.67;101506.84;5057891;28;1309;-39
2022/05/20 11:38:13;;;;;;;;;;;;;;;29.01;25.24;101504.13;5073968;28;1348;-39
2022/05/20 11:40:55;;;;;;;;;;;;;;;29.07;24.89;101506.13;4988125;28;1394;-39
2022/05/20 11:43:20;;;;;;;;;;;;;;;28.96;25.08;101501.94;5076498;28;1242;-39
2022/05/20 11:45:45;;;;;;;;;;;;;;;29.05;24.39;101489.19;5076629;28;1909;-38
2022/05/20 11:48:13;;;;;;;;;;;;;;;29.16;24.43;101491.50;5077361;28;1233;-37
2022/05/20 11:50:55;;;;;;;;;;;;;;;29.11;24.10;101488.50;5076547;28;1297;-37
2022/05/20 11:53:23;;;;;;;;;;;;;;;29.09;24.24;101483.25;5076859;28;1250;-38
2022/05/20 11:55:52;;;;;;;;;;;;;;;29.12;24.10;101478.50;5077269;28;1269;-37
2022/05/20 11:58:22;;;;;;;;;;;;;;;29.15;23.48;101480.84;5076203;28;1395;-38
2022/05/20 12:00:49;;;;;;;;;;;;;;;29.08;23.42;101478.84;5056406;28;1238;-38
2022/05/20 12:03:15;;;;;;;;;;;;;;;29.04;23.26;101484.81;5059637;28;758;-37
2022/05/20 12:05:41;;;;;;;;;;;;;;;29.04;22.94;101480.25;5058532;28;1975;-38
2022/05/20 12:08:06;;;;;;;;;;;;;;;29.05;22.53;101475.66;5077228;28;791;-37
2022/05/20 12:10:32;;;;;;;;;;;;;;;29.10;22.67;101473.25;5076563;28;1039;-38
2022/05/20 12:13:06;;;;;;;;;;;;;;;29.14;22.52;101471.03;5076602;28;880;-37
2022/05/20 12:15:41;;;;;;;;;;;;;;;29.05;22.72;101465.69;5076649;28;754;-37
2022/05/20 12:24:12;;;;;;;;;;;;;;;29.10;22.53;101454.28;5076099;28;891;-39
2022/05/20 12:24:15;;;;;;;;;;;;;;;29.07;22.21;101452.81;5061564;28;1906;-39
2022/05/20 12:26:45;;;;;;;;;;;;;;;29.09;21.74;101455.31;5076039;28;1188;-39
2022/05/20 12:29:46;;;;;;;;;;;;;;;29.02;21.87;101449.78;5076428;28;850;-39
2022/05/20 12:32:15;;;;;;;;;;;;;;;29.05;21.58;101446.72;5011435;28;1349;-40
2022/05/20 12:34:40;;;;;;;;;;;;;;;29.00;22.22;101445.56;5058769;28;1066;-39
2022/05/20 12:37:05;;;;;;;;;;;;;;;29.02;21.50;101438.09;5076882;28;802;-39
2022/05/20 12:39:47;;;;;;;;;;;;;;;29.04;21.61;101430.66;5075675;28;902;-39
2022/05/20 12:42:19;;;;;;;;;;;;;;;29.04;21.40;101428.78;5076010;28;1041;-39
2022/05/20 12:44:45;;;;;;;;;;;;;;;28.89;22.01;101425.13;5057318;28;1985;-39
2022/05/20 12:47:16;;;;;;;;;;;;;;;28.95;22.21;101422.53;5075272;28;1130;-40
2022/05/20 12:49:41;;;;;;;;;;;;;;;28.89;22.22;101422.41;5075982;28;1107;-40
2022/05/20 12:52:14;;;;;;;;;;;;;;;29.06;21.34;101421.31;5075933;28;1072;-40
2022/05/20 12:54:41;;;;;;;;;;;;;;;29.01;21.63;101414.75;5076029;28;1107;-39
2022/05/20 12:57:07;;;;;;;;;;;;;;;29.01;21.63;101420.16;5075656;28;1174;-39
2022/05/20 12:59:33;;;;;;;;;;;;;;;29.03;21.39;101415.44;5076053;28;1123;-39
2022/05/20 13:01:59;;;;;;;;;;;;;;;28.96;21.82;101410.66;5075288;28;973;-39
2022/05/20 13:04:28;;;;;;;;;;;;;;;28.89;21.92;101408.88;5056695;28;1914;-38
2022/05/20 13:06:53;;;;;;;;;;;;;;;28.95;21.64;101416.28;5076235;28;898;-38
2022/05/20 13:09:23;;;;;;;;;;;;;;;29.03;21.22;101413.53;5076012;28;802;-39
2022/05/20 13:11:51;;;;;;;;;;;;;;;29.00;20.97;101405.78;5076061;28;758;-39
2022/05/20 13:14:17;;;;;;;;;;;;;;;29.06;21.24;101401.50;5075695;28;1460;-39
2022/05/20 13:16:49;;;;;;;;;;;;;;;29.13;20.92;101391.63;5075888;28;1041;-38
2022/05/20 13:19:16;;;;;;;;;;;;;;;29.13;21.53;101393.50;5076204;28;797;-37
2022/05/20 13:21:42;;;;;;;;;;;;;;;29.09;20.68;101393.84;5075385;28;813;-37
2022/05/20 13:24:24;;;;;;;;;;;;;;;29.02;20.62;101387.50;5076206;28;1898;-38
2022/05/20 13:26:50;;;;;;;;;;;;;;;28.92;20.74;101392.25;5069750;28;1655;-37
2022/05/20 13:29:17;;;;;;;;;;;;;;;28.66;24.36;101382.63;5076140;28;841;-38
2022/05/20 13:31:43;;;;;;;;;;;;;;;28.46;24.49;101386.59;5076030;28;899;-38
2022/05/20 13:34:09;;;;;;;;;;;;;;;28.41;24.30;101378.16;5056901;28;1560;-38